createdAt,value
2022-08-28T00:01:04.519Z,45.66
2022-08-28T00:02:10.072Z,45.84
2022-08-28T00:03:17.335Z,45.41
2022-08-28T00:04:21.838Z,45.34
2022-08-28T00:05:29.164Z,45.22
2022-08-28T00:06:34.115Z,45.12
2022-08-28T00:07:38.281Z,45.20
2022-08-28T00:08:41.207Z,45.14
2022-08-28T00:09:44.167Z,44.98
2022-08-28T00:10:49.454Z,45.01
2022-08-28T00:11:53.584Z,45.26
2022-08-28T00:12:59.665Z,45.69
2022-08-28T00:14:09.412Z,45.29
2022-08-28T00:15:15.931Z,45.44
2022-08-28T00:16:20.455Z,45.00
2022-08-28T00:17:24.039Z,45.33
2022-08-28T00:18:31.166Z,45.48
2022-08-28T00:20:45.287Z,46.23
2022-08-28T00:21:49.057Z,45.74
2022-08-28T00:22:53.278Z,45.89
2022-08-28T00:24:01.575Z,45.96
2022-08-28T00:25:08.248Z,46.29
2022-08-28T00:26:14.810Z,46.17
2022-08-28T00:27:37.691Z,46.66
2022-08-28T00:28:42.742Z,46.73
2022-08-28T00:29:46.628Z,46.43
2022-08-28T00:30:53.788Z,47.06
2022-08-28T00:31:56.983Z,47.27
2022-08-28T00:33:04.393Z,47.63
2022-08-28T00:34:09.425Z,48.75
2022-08-28T00:35:13.591Z,49.35
2022-08-28T00:36:18.417Z,49.26
2022-08-28T00:37:24.583Z,48.86
2022-08-28T00:38:29.607Z,49.28
2022-08-28T00:39:34.056Z,49.03
2022-08-28T00:40:39.608Z,48.41
2022-08-28T00:41:47.383Z,48.54
2022-08-28T00:42:52.297Z,48.01
2022-08-28T00:44:18.627Z,48.00
2022-08-28T00:45:27.196Z,47.75
2022-08-28T00:46:30.581Z,47.90
2022-08-28T00:47:36.577Z,47.60
2022-08-28T00:48:40.311Z,47.83
2022-08-28T00:49:50.741Z,47.66
2022-08-28T00:51:13.648Z,47.99
2022-08-28T00:52:21.127Z,47.84
2022-08-28T00:53:27.141Z,47.98
2022-08-28T00:54:36.513Z,47.90
2022-08-28T00:55:41.907Z,47.62
2022-08-28T00:56:48.666Z,47.16
2022-08-28T00:58:01.554Z,47.37
2022-08-28T00:59:15.352Z,47.67
2022-08-28T01:00:23.225Z,47.68
2022-08-28T01:01:26.238Z,48.02
2022-08-28T01:02:30.802Z,48.45
2022-08-28T01:03:34.188Z,48.31
2022-08-28T01:04:38.683Z,47.97
2022-08-28T01:05:44.573Z,48.01
2022-08-28T01:06:55.498Z,48.01
2022-08-28T01:07:59.450Z,48.28
2022-08-28T01:09:06.423Z,48.32
2022-08-28T01:10:14.533Z,48.20
2022-08-28T01:11:23.134Z,48.01
2022-08-28T01:12:31.747Z,48.09
2022-08-28T01:13:39.328Z,48.29
2022-08-28T01:14:49.196Z,48.15
2022-08-28T01:15:54.614Z,48.16
2022-08-28T01:16:58.107Z,48.44
2022-08-28T01:18:11.971Z,48.29
2022-08-28T01:19:17.854Z,48.52
2022-08-28T01:20:26.341Z,48.94
2022-08-28T01:21:44.727Z,49.60
2022-08-28T01:23:14.139Z,49.39
2022-08-28T01:24:18.943Z,49.56
2022-08-28T01:25:32.389Z,49.36
2022-08-28T01:26:38.766Z,49.14
2022-08-28T01:27:43.278Z,49.04
2022-08-28T01:28:48.449Z,49.25
2022-08-28T01:29:52.093Z,49.02
2022-08-28T01:30:55.713Z,48.98
2022-08-28T01:31:59.107Z,48.76
2022-08-28T01:33:02.565Z,48.87
2022-08-28T01:34:13.351Z,48.70
2022-08-28T01:35:21.743Z,48.68
2022-08-28T01:36:26.732Z,48.64
2022-08-28T01:37:31.363Z,48.79
2022-08-28T01:38:34.341Z,48.39
2022-08-28T01:39:38.301Z,48.22
2022-08-28T01:40:46.225Z,48.22
2022-08-28T01:41:56.350Z,48.15
2022-08-28T01:43:12.856Z,48.19
2022-08-28T01:44:17.893Z,48.18
2022-08-28T01:45:25.904Z,48.12
2022-08-28T01:46:30.965Z,48.00
2022-08-28T01:47:35.277Z,48.22
2022-08-28T01:48:42.083Z,48.62
2022-08-28T01:49:46.610Z,49.10
2022-08-28T01:50:51.801Z,48.79
2022-08-28T01:51:56.372Z,48.63
2022-08-28T01:53:02.207Z,48.59
2022-08-28T01:54:06.764Z,48.70
2022-08-28T01:55:13.115Z,48.58
2022-08-28T01:56:22.077Z,48.92
2022-08-28T01:57:27.649Z,49.26
2022-08-28T01:58:33.003Z,49.26
2022-08-28T01:59:40.002Z,49.38
2022-08-28T02:00:46.811Z,49.80
2022-08-28T02:01:50.431Z,50.05
2022-08-28T02:02:57.042Z,49.65
2022-08-28T02:04:02.621Z,49.45
2022-08-28T02:05:07.038Z,49.66
2022-08-28T02:06:11.687Z,49.77
2022-08-28T02:07:16.633Z,49.58
2022-08-28T02:08:20.883Z,49.42
2022-08-28T02:09:24.284Z,49.38
2022-08-28T02:10:31.114Z,49.58
2022-08-28T02:11:35.416Z,50.00
2022-08-28T02:12:40.086Z,50.05
2022-08-28T02:13:46.087Z,50.05
2022-08-28T02:14:56.804Z,49.78
2022-08-28T02:16:01.676Z,49.83
2022-08-28T02:17:08.961Z,49.78
2022-08-28T02:18:13.695Z,49.80
2022-08-28T02:19:21.768Z,49.30
2022-08-28T02:20:29.373Z,49.64
2022-08-28T02:21:33.075Z,49.76
2022-08-28T02:22:37.344Z,50.01
2022-08-28T02:23:43.864Z,49.42
2022-08-28T02:24:47.552Z,49.38
2022-08-28T02:25:50.809Z,49.21
2022-08-28T02:26:54.890Z,48.23
2022-08-28T02:27:59.857Z,48.63
2022-08-28T02:29:03.274Z,48.08
2022-08-28T02:30:11.458Z,48.26
2022-08-28T02:31:14.956Z,48.12
2022-08-28T02:32:19.325Z,48.53
2022-08-28T02:33:25.727Z,48.52
2022-08-28T02:34:29.866Z,48.42
2022-08-28T02:35:34.100Z,48.36
2022-08-28T02:36:42.310Z,48.17
2022-08-28T02:37:48.218Z,48.67
2022-08-28T02:38:57.561Z,48.16
2022-08-28T02:40:01.966Z,48.19
2022-08-28T02:41:07.780Z,48.34
2022-08-28T02:42:11.480Z,48.35
2022-08-28T02:43:18.097Z,48.14
2022-08-28T02:44:23.560Z,48.20
2022-08-28T02:45:26.232Z,48.06
2022-08-28T02:46:31.442Z,47.67
2022-08-28T02:47:41.893Z,49.51
2022-08-28T02:48:46.139Z,49.58
2022-08-28T02:49:51.105Z,49.50
2022-08-28T02:51:01.323Z,49.54
2022-08-28T02:52:07.614Z,49.17
2022-08-28T02:53:12.460Z,48.67
2022-08-28T02:54:18.519Z,48.53
2022-08-28T02:55:26.104Z,48.58
2022-08-28T02:56:30.571Z,48.79
2022-08-28T02:57:35.749Z,48.66
2022-08-28T02:58:41.446Z,49.07
2022-08-28T02:59:45.107Z,49.07
2022-08-28T03:00:49.399Z,49.26
2022-08-28T03:01:52.913Z,49.08
2022-08-28T03:02:56.437Z,49.51
2022-08-28T03:04:02.188Z,49.57
2022-08-28T03:05:06.909Z,49.78
2022-08-28T03:06:16.060Z,49.81
2022-08-28T03:07:20.711Z,49.98
2022-08-28T03:08:27.252Z,50.45
2022-08-28T03:09:30.441Z,50.60
2022-08-28T03:10:34.186Z,49.95
2022-08-28T03:11:37.654Z,49.98
2022-08-28T03:12:41.613Z,50.08
2022-08-28T03:13:45.399Z,49.79
2022-08-28T03:14:50.080Z,50.43
2022-08-28T03:15:55.723Z,50.91
2022-08-28T03:17:01.224Z,50.55
2022-08-28T03:18:11.404Z,50.52
2022-08-28T03:19:16.133Z,50.44
2022-08-28T03:20:25.013Z,50.65
2022-08-28T03:21:30.706Z,50.57
2022-08-28T03:22:56.360Z,51.29
2022-08-28T03:24:03.004Z,50.74
2022-08-28T03:25:09.517Z,50.85
2022-08-28T03:26:21.107Z,50.64
2022-08-28T03:27:29.909Z,50.40
2022-08-28T03:28:39.575Z,51.17
2022-08-28T03:29:43.293Z,51.22
2022-08-28T03:30:47.539Z,51.30
2022-08-28T03:31:54.977Z,52.07
2022-08-28T03:32:58.560Z,51.56
2022-08-28T03:34:02.705Z,51.80
2022-08-28T03:35:10.230Z,51.62
2022-08-28T03:36:20.153Z,51.29
2022-08-28T03:37:26.579Z,51.49
2022-08-28T03:38:30.237Z,51.14
2022-08-28T03:39:33.847Z,51.03
2022-08-28T03:40:47.616Z,50.74
2022-08-28T03:41:50.954Z,50.97
2022-08-28T03:42:56.579Z,51.37
2022-08-28T03:44:01.968Z,51.24
2022-08-28T03:45:10.418Z,50.85
2022-08-28T03:46:18.025Z,51.81
2022-08-28T03:47:24.388Z,51.79
2022-08-28T03:48:31.961Z,51.92
2022-08-28T03:49:36.301Z,52.17
2022-08-28T03:50:41.101Z,52.10
2022-08-28T03:51:46.710Z,51.60
2022-08-28T03:52:54.763Z,51.63
2022-08-28T03:53:59.962Z,51.01
2022-08-28T03:55:05.756Z,51.20
2022-08-28T04:22:12.249Z,55.43
2022-08-28T04:23:19.167Z,55.18
2022-08-28T04:24:25.043Z,55.03
2022-08-28T04:25:29.589Z,55.20
2022-08-28T04:26:36.021Z,54.64
2022-08-28T04:27:39.666Z,54.45
2022-08-28T04:28:46.235Z,54.62
2022-08-28T04:29:51.269Z,55.00
2022-08-28T04:30:54.605Z,54.67
2022-08-28T04:31:59.151Z,54.67
2022-08-28T04:33:03.140Z,54.71
2022-08-28T04:34:11.416Z,54.64
2022-08-28T04:35:16.416Z,54.50
2022-08-28T04:36:20.581Z,54.67
2022-08-28T04:37:27.988Z,54.43
2022-08-28T04:38:31.919Z,54.39
2022-08-28T04:39:36.684Z,54.14
2022-08-28T04:40:41.721Z,54.35
2022-08-28T04:41:46.854Z,54.55
2022-08-28T04:42:52.440Z,55.06
2022-08-28T04:44:02.503Z,55.30
2022-08-28T04:45:09.847Z,55.57
2022-08-28T04:46:15.908Z,55.16
2022-08-28T04:47:22.482Z,56.25
2022-08-28T04:48:26.093Z,55.50
2022-08-28T04:49:33.247Z,55.70
2022-08-28T04:50:44.599Z,56.88
2022-08-28T04:51:51.140Z,57.04
2022-08-28T04:52:55.700Z,59.00
2022-08-28T04:54:01.757Z,58.74
2022-08-28T04:55:06.297Z,57.44
2022-08-28T04:56:14.099Z,57.59
2022-08-28T04:57:17.727Z,57.69
2022-08-28T04:58:23.893Z,57.48
2022-08-28T04:59:28.263Z,59.60
2022-08-28T05:00:32.491Z,58.20
2022-08-28T05:01:39.245Z,58.72
2022-08-28T05:02:44.095Z,59.22
2022-08-28T05:03:49.539Z,58.77
2022-08-28T05:04:53.819Z,58.70
2022-08-28T05:05:57.640Z,59.91
2022-08-28T05:07:01.253Z,59.99
2022-08-28T05:08:04.721Z,60.27
2022-08-28T05:09:10.177Z,59.58
2022-08-28T05:10:14.348Z,59.56
2022-08-28T05:11:34.068Z,59.88
2022-08-28T05:12:30.678Z,60.81
2022-08-28T05:13:33.977Z,61.15
2022-08-28T05:14:37.936Z,60.34
2022-08-28T05:15:48.627Z,60.61
2022-08-28T05:16:54.485Z,60.32
2022-08-28T05:18:01.009Z,60.80
2022-08-28T05:19:04.825Z,59.35
2022-08-28T05:20:11.350Z,58.65
2022-08-28T05:21:20.711Z,58.96
2022-08-28T05:22:29.670Z,59.76
2022-08-28T05:23:33.339Z,59.91
2022-08-28T05:24:40.469Z,58.89
2022-08-28T05:25:48.296Z,59.07
2022-08-28T05:26:53.072Z,58.21
2022-08-28T05:27:58.257Z,57.85
2022-08-28T05:29:02.040Z,57.77
2022-08-28T05:30:08.371Z,56.62
2022-08-28T05:31:17.908Z,56.63
2022-08-28T05:32:25.018Z,56.02
2022-08-28T05:33:29.641Z,56.09
2022-08-28T05:34:38.342Z,55.80
2022-08-28T05:35:47.876Z,56.89
2022-08-28T05:36:51.716Z,56.48
2022-08-28T05:37:57.228Z,56.29
2022-08-28T05:39:03.635Z,56.33
2022-08-28T05:40:10.024Z,57.36
2022-08-28T05:41:22.121Z,57.40
2022-08-28T05:42:30.621Z,57.71
2022-08-28T05:43:34.935Z,58.09
2022-08-28T05:44:38.031Z,57.87
2022-08-28T05:45:45.257Z,58.40
2022-08-28T05:46:48.835Z,58.50
2022-08-28T05:47:52.871Z,58.67
2022-08-28T05:48:57.320Z,58.72
2022-08-28T05:50:01.614Z,58.82
2022-08-28T05:51:12.425Z,58.82
2022-08-28T05:52:19.287Z,59.72
2022-08-28T05:53:26.873Z,58.76
2022-08-28T05:54:31.175Z,58.99
2022-08-28T05:55:34.648Z,59.72
2022-08-28T05:56:42.166Z,60.41
2022-08-28T05:57:47.934Z,60.14
2022-08-28T05:58:51.026Z,61.13
2022-08-28T05:59:55.663Z,60.00
2022-08-28T06:01:14.657Z,60.79
2022-08-28T06:02:17.687Z,60.27
2022-08-28T06:03:20.825Z,60.95
2022-08-28T06:04:28.420Z,60.14
2022-08-28T06:06:49.694Z,57.55
2022-08-28T06:07:55.867Z,57.49
2022-08-28T06:09:08.419Z,57.58
2022-08-28T06:10:15.284Z,59.27
2022-08-28T06:11:22.933Z,58.39
2022-08-28T06:12:28.456Z,58.97
2022-08-28T06:13:33.701Z,58.62
2022-08-28T06:14:39.504Z,58.88
2022-08-28T06:15:43.750Z,57.61
2022-08-28T06:16:54.314Z,58.07
2022-08-28T06:18:00.779Z,58.79
2022-08-28T06:19:04.805Z,58.43
2022-08-28T06:20:11.551Z,56.60
2022-08-28T06:21:14.190Z,57.90
2022-08-28T06:22:20.728Z,56.55
2022-08-28T06:23:24.712Z,56.88
2022-08-28T06:24:29.360Z,55.96
2022-08-28T06:26:56.569Z,56.06
2022-08-28T06:27:59.309Z,55.45
2022-08-28T06:29:06.116Z,55.08
2022-08-28T06:30:11.346Z,54.83
2022-08-28T06:31:24.426Z,54.12
2022-08-28T06:32:19.942Z,53.88
2022-08-28T06:33:24.625Z,54.36
2022-08-28T06:34:29.214Z,54.36
2022-08-28T06:35:34.825Z,53.99
2022-08-28T06:36:50.600Z,54.16
2022-08-28T06:37:51.238Z,54.37
2022-08-28T06:38:57.489Z,53.20
2022-08-28T06:40:05.367Z,53.09
2022-08-28T06:41:09.668Z,52.83
2022-08-28T06:42:13.782Z,53.67
2022-08-28T06:43:21.839Z,53.91
2022-08-28T06:44:26.174Z,52.83
2022-08-28T06:45:30.777Z,52.97
2022-08-28T06:46:41.107Z,52.75
2022-08-28T06:47:47.584Z,52.52
2022-08-28T06:48:52.474Z,52.36
2022-08-28T06:49:55.848Z,51.65
2022-08-28T06:51:00.130Z,51.59
2022-08-28T06:52:04.108Z,52.70
2022-08-28T06:54:24.470Z,52.26
2022-08-28T06:55:27.785Z,50.78
2022-08-28T06:56:34.286Z,51.39
2022-08-28T06:57:39.636Z,51.45
2022-08-28T06:58:50.281Z,50.49
2022-08-28T06:59:51.832Z,50.41
2022-08-28T07:01:03.171Z,50.45
2022-08-28T07:02:08.247Z,50.45
2022-08-28T07:03:16.067Z,50.88
2022-08-28T07:04:26.846Z,49.72
2022-08-28T07:05:30.979Z,48.74
2022-08-28T07:06:40.195Z,49.08
2022-08-28T07:07:43.193Z,47.79
2022-08-28T07:08:46.815Z,47.51
2022-08-28T07:09:51.970Z,47.05
2022-08-28T07:11:01.008Z,46.01
2022-08-28T07:12:08.231Z,45.27
2022-08-28T07:13:12.868Z,44.45
2022-08-28T07:14:16.770Z,43.01
2022-08-28T07:15:20.530Z,41.47
2022-08-28T07:16:28.766Z,40.35
2022-08-28T07:17:33.100Z,39.39
2022-08-28T07:18:36.884Z,39.38
2022-08-28T07:19:48.379Z,38.23
2022-08-28T07:20:58.067Z,37.45
2022-08-28T07:22:02.315Z,36.49
2022-08-28T07:23:06.642Z,37.25
2022-08-28T07:24:15.251Z,38.30
2022-08-28T07:25:18.583Z,38.00
2022-08-28T07:26:23.526Z,38.14
2022-08-28T07:27:28.936Z,38.10
2022-08-28T07:28:32.404Z,38.01
2022-08-28T07:29:36.233Z,37.48
2022-08-28T07:30:39.795Z,37.60
2022-08-28T07:31:46.446Z,36.12
2022-08-28T07:32:50.401Z,34.11
2022-08-28T07:33:55.615Z,32.87
2022-08-28T07:34:59.402Z,31.31
2022-08-28T07:36:08.127Z,30.32
2022-08-28T07:37:15.465Z,29.24
2022-08-28T07:38:19.316Z,28.82
2022-08-28T07:39:27.451Z,29.50
2022-08-28T07:40:32.486Z,30.42
2022-08-28T07:41:38.785Z,30.66
2022-08-28T07:43:02.723Z,29.49
2022-08-28T07:44:27.429Z,28.63
2022-08-28T07:45:30.906Z,27.89
2022-08-28T07:46:38.165Z,28.20
2022-08-28T07:47:42.887Z,29.03
2022-08-28T07:48:48.508Z,27.65
2022-08-28T07:49:55.212Z,25.59
2022-08-28T07:52:12.643Z,23.92
2022-08-28T07:53:17.084Z,24.12
2022-08-28T07:54:25.705Z,24.03
2022-08-28T07:55:30.243Z,23.28
2022-08-28T07:56:34.467Z,22.41
2022-08-28T07:57:39.630Z,22.28
2022-08-28T07:58:43.557Z,22.33
2022-08-28T07:59:49.886Z,22.95
2022-08-28T08:00:54.748Z,24.05
2022-08-28T08:01:57.554Z,24.40
2022-08-28T08:03:05.525Z,23.72
2022-08-28T08:04:16.394Z,23.57
2022-08-28T08:05:21.195Z,24.79
2022-08-28T08:06:33.919Z,26.00
2022-08-28T08:07:43.943Z,26.44
2022-08-28T08:08:46.303Z,26.44
2022-08-28T08:11:11.255Z,24.23
2022-08-28T08:12:16.857Z,23.50
2022-08-28T08:13:23.702Z,24.31
2022-08-28T08:14:27.107Z,23.53
2022-08-28T08:15:31.565Z,23.34
2022-08-28T08:16:40.113Z,23.09
2022-08-28T08:17:46.105Z,22.93
2022-08-28T08:18:51.193Z,22.84
2022-08-28T08:19:56.440Z,23.39
2022-08-28T08:21:01.966Z,23.62
2022-08-28T08:22:06.679Z,23.26
2022-08-28T08:23:10.467Z,23.18
2022-08-28T08:24:20.011Z,23.65
2022-08-28T08:25:23.622Z,24.86
2022-08-28T08:26:28.496Z,25.91
2022-08-28T08:27:34.101Z,26.38
2022-08-28T08:28:40.192Z,26.17
2022-08-28T08:29:44.771Z,26.40
2022-08-28T08:30:49.797Z,26.93
2022-08-28T08:32:04.256Z,27.14
2022-08-28T08:33:07.714Z,27.42
2022-08-28T08:34:12.226Z,27.41
2022-08-28T08:36:34.853Z,27.34
2022-08-28T08:37:38.233Z,26.91
2022-08-28T08:38:43.851Z,27.34
2022-08-28T08:39:48.904Z,27.55
2022-08-28T08:40:51.845Z,28.32
2022-08-28T08:41:59.044Z,27.34
2022-08-28T08:43:03.310Z,26.16
2022-08-28T08:44:28.501Z,25.89
2022-08-28T08:45:33.441Z,27.28
2022-08-28T08:46:45.822Z,24.50
2022-08-28T08:47:54.300Z,24.27
2022-08-28T08:49:02.966Z,23.61
2022-08-28T08:50:25.956Z,23.48
2022-08-28T08:51:38.812Z,23.50
2022-08-28T08:52:52.545Z,23.87
2022-08-28T08:54:07.939Z,23.82
2022-08-28T08:55:18.464Z,23.39
2022-08-28T08:56:24.242Z,23.91
2022-08-28T08:57:35.659Z,24.66
2022-08-28T08:58:45.970Z,24.82
2022-08-28T08:59:50.182Z,25.41
2022-08-28T09:01:12.597Z,25.75
2022-08-28T09:02:21.551Z,25.31
2022-08-28T09:04:47.843Z,25.86
2022-08-28T09:06:04.021Z,25.31
2022-08-28T09:07:20.151Z,25.19
2022-08-28T09:08:41.013Z,25.42
2022-08-28T09:09:48.349Z,25.50
2022-08-28T09:11:09.851Z,25.02
2022-08-28T09:12:34.173Z,24.50
2022-08-28T09:15:17.949Z,25.18
2022-08-28T09:16:31.338Z,25.53
2022-08-28T09:17:39.791Z,26.32
2022-08-28T09:18:44.063Z,26.57
2022-08-28T09:19:50.040Z,26.37
2022-08-28T09:21:11.752Z,26.75
2022-08-28T09:22:19.876Z,26.41
2022-08-28T09:23:25.619Z,26.20
2022-08-28T09:24:37.438Z,26.21
2022-08-28T09:25:51.374Z,26.46
2022-08-28T09:26:58.069Z,26.86
2022-08-28T09:28:12.166Z,26.75
2022-08-28T09:29:21.585Z,26.93
2022-08-28T09:30:33.234Z,26.28
2022-08-28T09:31:41.675Z,26.46
2022-08-28T09:32:48.218Z,26.88
2022-08-28T09:33:54.051Z,27.98
2022-08-28T09:35:04.240Z,27.97
2022-08-28T09:36:25.609Z,27.69
2022-08-28T09:37:32.490Z,27.39
2022-08-28T09:38:40.617Z,27.34
2022-08-28T09:39:48.694Z,26.89
2022-08-28T09:41:12.415Z,27.09
2022-08-28T09:42:40.130Z,27.31
2022-08-28T09:43:47.485Z,27.27
2022-08-28T09:44:59.679Z,26.60
2022-08-28T09:46:08.728Z,26.63
2022-08-28T09:47:18.146Z,27.27
2022-08-28T09:48:24.310Z,27.04
2022-08-28T09:49:31.334Z,27.13
2022-08-28T09:50:42.525Z,27.02
2022-08-28T09:51:50.787Z,27.13
2022-08-28T09:52:58.091Z,27.37
2022-08-28T09:54:05.326Z,27.23
2022-08-28T09:55:14.331Z,27.20
2022-08-28T09:56:37.988Z,27.64
2022-08-28T09:57:45.460Z,27.35
2022-08-28T09:58:56.900Z,27.51
2022-08-28T10:00:03.921Z,27.99
2022-08-28T10:01:47.954Z,27.50
2022-08-28T10:03:14.528Z,27.30
2022-08-28T10:04:37.344Z,27.39
2022-08-28T10:05:46.131Z,26.96
2022-08-28T10:06:59.663Z,27.04
2022-08-28T10:08:10.023Z,26.18
2022-08-28T10:09:46.852Z,26.40
2022-08-28T10:10:54.663Z,25.44
2022-08-28T10:12:11.611Z,25.13
2022-08-28T10:13:25.844Z,25.07
2022-08-28T10:14:42.842Z,25.19
2022-08-28T10:16:09.848Z,25.80
2022-08-28T10:17:31.160Z,25.55
2022-08-28T10:18:51.656Z,25.80
2022-08-28T10:20:13.753Z,25.85
2022-08-28T10:21:31.033Z,25.61
2022-08-28T10:22:38.274Z,26.00
2022-08-28T10:24:09.490Z,26.31
2022-08-28T10:25:25.779Z,26.64
2022-08-28T10:26:51.422Z,27.32
2022-08-28T10:28:11.496Z,27.29
2022-08-28T10:29:41.958Z,27.48
2022-08-28T10:30:53.018Z,27.40
2022-08-28T10:32:23.265Z,27.24
2022-08-28T10:33:36.507Z,26.95
2022-08-28T10:35:02.709Z,26.38
2022-08-28T10:36:32.149Z,26.19
2022-08-28T10:37:45.307Z,25.40
2022-08-28T10:39:10.813Z,25.37
2022-08-28T10:40:24.830Z,25.33
2022-08-28T10:42:54.333Z,23.77
2022-08-28T10:44:02.592Z,23.13
2022-08-28T10:45:20.774Z,23.68
2022-08-28T10:46:37.929Z,23.93
2022-08-28T10:47:44.503Z,23.83
2022-08-28T10:49:00.673Z,23.72
2022-08-28T10:50:16.627Z,23.97
2022-08-28T10:51:34.903Z,23.05
2022-08-28T10:52:37.198Z,23.64
2022-08-28T10:54:02.986Z,23.28
2022-08-28T10:55:14.624Z,23.22
2022-08-28T10:56:23.707Z,23.90
2022-08-28T10:57:55.750Z,23.65
2022-08-28T10:58:59.990Z,23.64
2022-08-28T11:00:19.427Z,24.34
2022-08-28T11:01:35.585Z,24.29
2022-08-28T11:02:47.197Z,24.15
2022-08-28T11:03:53.082Z,24.22
2022-08-28T11:05:00.111Z,24.03
2022-08-28T11:06:11.762Z,24.06
2022-08-28T11:07:23.655Z,24.05
2022-08-28T11:08:36.248Z,24.37
2022-08-28T11:09:46.982Z,24.29
2022-08-28T11:10:54.755Z,24.24
2022-08-28T11:12:09.131Z,24.65
2022-08-28T11:13:13.169Z,24.97
2022-08-28T11:14:44.614Z,25.00
2022-08-28T11:15:44.969Z,24.90
2022-08-28T11:16:52.397Z,24.75
2022-08-28T11:17:59.814Z,24.33
2022-08-28T11:19:31.347Z,25.08
2022-08-28T11:22:15.959Z,25.22
2022-08-28T11:23:27.749Z,25.13
2022-08-28T11:24:50.193Z,25.47
2022-08-28T11:26:00.699Z,25.25
2022-08-28T11:27:21.472Z,25.46
2022-08-28T11:28:37.906Z,25.60
2022-08-28T11:30:03.031Z,25.40
2022-08-28T11:31:28.762Z,25.38
2022-08-28T11:32:46.834Z,25.22
2022-08-28T11:33:52.921Z,25.33
2022-08-28T11:35:00.595Z,25.25
2022-08-28T11:36:13.708Z,25.44
2022-08-28T11:37:21.929Z,25.87
2022-08-28T11:38:47.491Z,25.57
2022-08-28T11:39:52.111Z,24.96
2022-08-28T11:41:04.526Z,25.08
2022-08-28T11:42:14.821Z,25.35
2022-08-28T11:43:26.395Z,25.78
2022-08-28T11:44:44.831Z,25.72
2022-08-28T11:45:58.987Z,24.95
2022-08-28T11:48:52.949Z,24.84
2022-08-28T11:50:00.663Z,25.10
2022-08-28T11:51:11.781Z,24.66
2022-08-28T11:52:46.632Z,24.68
2022-08-28T11:54:17.677Z,24.47
2022-08-28T11:55:35.177Z,25.33
2022-08-28T11:57:06.470Z,25.46
2022-08-28T11:58:27.218Z,26.27
2022-08-28T11:59:47.905Z,26.43
2022-08-28T12:02:40.056Z,26.01
2022-08-28T12:03:47.159Z,26.22
2022-08-28T12:04:51.482Z,26.09
2022-08-28T12:06:00.128Z,25.96
2022-08-28T12:07:13.419Z,26.01
2022-08-28T12:09:51.764Z,25.33
2022-08-28T12:10:58.076Z,25.66
2022-08-28T12:12:17.764Z,25.33
2022-08-28T12:13:44.616Z,25.29
2022-08-28T12:14:58.144Z,25.22
2022-08-28T12:16:07.844Z,25.27
2022-08-28T12:17:31.271Z,25.38
2022-08-28T12:18:42.421Z,25.22
2022-08-28T12:20:09.462Z,25.76
2022-08-28T12:21:22.611Z,25.38
2022-08-28T12:22:30.060Z,25.60
2022-08-28T12:23:47.627Z,25.39
2022-08-28T12:25:02.057Z,25.10
2022-08-28T12:26:22.599Z,25.57
2022-08-28T12:27:27.065Z,25.48
2022-08-28T12:28:48.117Z,25.55
2022-08-28T12:29:57.188Z,25.68
2022-08-28T12:31:12.137Z,25.62
2022-08-28T12:32:40.890Z,25.44
2022-08-28T12:33:56.967Z,25.19
2022-08-28T12:35:05.048Z,25.88
2022-08-28T12:36:19.943Z,25.92
2022-08-28T12:37:51.203Z,25.96
2022-08-28T12:38:50.253Z,25.57
2022-08-28T12:39:56.785Z,24.90
2022-08-28T12:41:03.376Z,24.56
2022-08-28T12:42:10.956Z,24.61
2022-08-28T12:43:18.575Z,24.16
2022-08-28T12:44:30.624Z,24.21
2022-08-28T12:45:52.521Z,24.74
2022-08-28T12:46:59.211Z,24.84
2022-08-28T12:48:14.420Z,25.59
2022-08-28T12:49:36.229Z,25.45
2022-08-28T12:50:40.339Z,25.29
2022-08-28T12:51:43.448Z,26.28
2022-08-28T12:52:52.632Z,26.38
2022-08-28T12:54:02.553Z,26.85
2022-08-28T12:55:09.855Z,26.85
2022-08-28T12:56:19.474Z,26.87
2022-08-28T12:57:25.237Z,26.69
2022-08-28T12:58:32.359Z,27.05
2022-08-28T12:59:56.376Z,26.91
2022-08-28T13:01:07.349Z,26.65
2022-08-28T13:03:31.606Z,26.55
2022-08-28T13:04:41.030Z,26.83
2022-08-28T13:05:43.837Z,26.41
2022-08-28T13:06:46.876Z,26.80
2022-08-28T13:07:56.879Z,27.32
2022-08-28T13:09:10.266Z,27.34
2022-08-28T13:10:22.935Z,27.55
2022-08-28T13:11:30.394Z,27.49
2022-08-28T13:12:56.312Z,28.08
2022-08-28T13:13:49.984Z,28.20
2022-08-28T13:14:55.406Z,27.87
2022-08-28T13:16:02.299Z,27.59
2022-08-28T13:17:05.902Z,27.19
2022-08-28T13:18:12.875Z,27.28
2022-08-28T13:19:30.124Z,27.18
2022-08-28T13:20:36.752Z,27.72
2022-08-28T13:21:53.050Z,28.05
2022-08-28T13:22:57.081Z,27.85
2022-08-28T13:24:03.368Z,27.85
2022-08-28T13:26:32.975Z,27.91
2022-08-28T13:27:40.077Z,27.94
2022-08-28T13:28:44.649Z,26.98
2022-08-28T13:30:00.051Z,27.75
2022-08-28T13:31:06.429Z,27.25
2022-08-28T13:32:13.686Z,27.54
2022-08-28T13:33:24.961Z,28.03
2022-08-28T13:34:32.598Z,28.54
2022-08-28T13:35:43.320Z,28.68
2022-08-28T13:36:50.364Z,28.59
2022-08-28T13:37:57.183Z,28.83
2022-08-28T13:39:02.106Z,28.51
2022-08-28T13:40:19.733Z,28.32
2022-08-28T13:41:14.562Z,28.10
2022-08-28T13:42:18.716Z,28.24
2022-08-28T13:43:25.854Z,28.53
2022-08-28T13:44:43.634Z,27.88
2022-08-28T13:47:09.548Z,27.50
2022-08-28T13:48:15.905Z,27.76
2022-08-28T13:49:23.307Z,27.88
2022-08-28T13:50:27.167Z,28.09
2022-08-28T13:51:32.886Z,28.18
2022-08-28T13:52:42.130Z,28.12
2022-08-28T13:53:45.787Z,28.30
2022-08-28T13:54:51.946Z,28.63
2022-08-28T13:55:57.611Z,28.23
2022-08-28T13:57:05.286Z,27.97
2022-08-28T13:58:08.383Z,28.45
2022-08-28T13:59:12.772Z,28.72
2022-08-28T14:00:19.454Z,28.99
2022-08-28T14:01:30.881Z,28.59
2022-08-28T14:02:56.962Z,28.47
2022-08-28T14:04:00.403Z,28.87
2022-08-28T14:05:06.680Z,29.25
2022-08-28T14:07:23.778Z,29.01
2022-08-28T14:08:27.321Z,28.87
2022-08-28T14:09:37.667Z,28.64
2022-08-28T14:10:42.298Z,29.00
2022-08-28T14:11:49.275Z,28.92
2022-08-28T14:12:53.192Z,28.57
2022-08-28T14:13:58.441Z,28.23
2022-08-28T14:15:02.501Z,28.30
2022-08-28T14:16:08.528Z,28.05
2022-08-28T14:17:14.285Z,28.13
2022-08-28T14:18:21.930Z,28.25
2022-08-28T14:19:26.676Z,28.65
2022-08-28T14:20:33.732Z,29.02
2022-08-28T14:21:41.807Z,30.12
2022-08-28T14:22:45.303Z,31.54
2022-08-28T14:23:49.856Z,32.45
2022-08-28T14:24:53.789Z,31.06
2022-08-28T14:25:56.468Z,31.11
2022-08-28T14:27:07.813Z,31.44
2022-08-28T14:28:15.999Z,31.79
2022-08-28T14:29:20.597Z,32.15
2022-08-28T14:30:26.695Z,32.65
2022-08-28T14:31:31.169Z,32.76
2022-08-28T14:32:36.042Z,33.33
2022-08-28T14:33:42.527Z,32.81
2022-08-28T14:34:47.783Z,32.62
2022-08-28T14:35:56.063Z,32.10
2022-08-28T14:37:01.963Z,32.30
2022-08-28T14:38:04.813Z,32.16
2022-08-28T14:39:11.912Z,31.78
2022-08-28T14:40:22.240Z,31.99
2022-08-28T14:41:28.188Z,32.03
2022-08-28T14:42:32.342Z,32.52
2022-08-28T14:43:36.296Z,32.72
2022-08-28T14:44:47.657Z,32.83
2022-08-28T14:45:54.616Z,32.58
2022-08-28T14:46:58.528Z,32.97
2022-08-28T14:48:04.923Z,33.42
2022-08-28T14:49:12.796Z,34.36
2022-08-28T14:50:18.303Z,34.90
2022-08-28T14:51:22.475Z,35.21
2022-08-28T14:52:26.025Z,35.43
2022-08-28T14:53:29.513Z,36.11
2022-08-28T14:54:31.989Z,35.82
2022-08-28T14:55:42.651Z,36.45
2022-08-28T14:56:47.217Z,36.31
2022-08-28T14:57:51.342Z,36.81
2022-08-28T14:58:59.568Z,36.39
2022-08-28T15:00:04.714Z,36.30
2022-08-28T15:01:11.487Z,36.04
2022-08-28T15:02:16.059Z,36.58
2022-08-28T15:03:19.610Z,37.17
2022-08-28T15:04:27.670Z,36.94
2022-08-28T15:05:31.583Z,37.63
2022-08-28T15:06:38.885Z,37.90
2022-08-28T15:08:07.489Z,38.09
2022-08-28T15:09:15.455Z,38.11
2022-08-28T15:10:23.373Z,38.43
2022-08-28T15:11:27.934Z,38.93
2022-08-28T15:12:33.453Z,39.23
2022-08-28T15:13:37.210Z,39.56
2022-08-28T15:14:40.586Z,39.85
2022-08-28T15:15:49.041Z,39.83
2022-08-28T15:16:52.933Z,39.94
2022-08-28T15:17:57.768Z,40.04
2022-08-28T15:19:04.122Z,40.26
2022-08-28T15:20:11.172Z,40.16
2022-08-28T15:21:21.815Z,40.34
2022-08-28T15:22:27.649Z,40.37
2022-08-28T15:23:30.438Z,40.74
2022-08-28T15:24:35.486Z,40.90
2022-08-28T15:25:38.698Z,41.22
2022-08-28T15:26:44.798Z,41.60
2022-08-28T15:27:51.457Z,42.11
2022-08-28T15:28:58.810Z,42.06
2022-08-28T15:30:02.436Z,42.25
2022-08-28T15:31:07.161Z,42.41
2022-08-28T15:32:10.420Z,42.15